sensor_id;sensor_type;location;lat;lon;timestamp;P1;durP1;ratioP1;P2;durP2;ratioP2
72590;SDS011;60625;51.212;5.952;2023-03-01T00:01:20;10.00;;;5.00;;
72590;SDS011;60625;51.212;5.952;2023-03-01T00:06:23;12.70;;;5.60;;
72590;SDS011;60625;51.212;5.952;2023-03-01T00:11:27;9.70;;;5.30;;
72590;SDS011;60625;51.212;5.952;2023-03-01T00:16:32;11.40;;;5.30;;
72590;SDS011;60625;51.212;5.952;2023-03-01T00:21:36;11.60;;;5.70;;
72590;SDS011;60625;51.212;5.952;2023-03-01T00:26:37;10.60;;;5.50;;
72590;SDS011;60625;51.212;5.952;2023-03-01T00:31:37;13.00;;;6.00;;
72590;SDS011;60625;51.212;5.952;2023-03-01T00:36:39;11.40;;;5.40;;
72590;SDS011;60625;51.212;5.952;2023-03-01T00:41:40;9.40;;;5.10;;
72590;SDS011;60625;51.212;5.952;2023-03-01T00:46:42;9.80;;;5.70;;
72590;SDS011;60625;51.212;5.952;2023-03-01T00:51:42;10.80;;;5.20;;
72590;SDS011;60625;51.212;5.952;2023-03-01T00:56:43;12.70;;;5.70;;
72590;SDS011;60625;51.212;5.952;2023-03-01T01:01:43;12.40;;;5.30;;
72590;SDS011;60625;51.212;5.952;2023-03-01T01:06:45;11.50;;;5.20;;
72590;SDS011;60625;51.212;5.952;2023-03-01T01:11:49;10.10;;;5.40;;
72590;SDS011;60625;51.212;5.952;2023-03-01T01:16:50;10.30;;;4.60;;
72590;SDS011;60625;51.212;5.952;2023-03-01T01:21:51;10.90;;;5.50;;
72590;SDS011;60625;51.212;5.952;2023-03-01T01:26:52;12.70;;;5.70;;
72590;SDS011;60625;51.212;5.952;2023-03-01T01:31:53;10.30;;;5.60;;
72590;SDS011;60625;51.212;5.952;2023-03-01T01:36:53;11.80;;;6.10;;
72590;SDS011;60625;51.212;5.952;2023-03-01T01:41:54;12.10;;;6.00;;
72590;SDS011;60625;51.212;5.952;2023-03-01T01:47:06;12.10;;;5.60;;
72590;SDS011;60625;51.212;5.952;2023-03-01T01:52:24;9.70;;;5.60;;
72590;SDS011;60625;51.212;5.952;2023-03-01T01:57:37;10.10;;;5.60;;
72590;SDS011;60625;51.212;5.952;2023-03-01T02:02:42;11.50;;;6.10;;
72590;SDS011;60625;51.212;5.952;2023-03-01T02:07:44;11.00;;;5.90;;
72590;SDS011;60625;51.212;5.952;2023-03-01T02:12:45;9.80;;;5.00;;
72590;SDS011;60625;51.212;5.952;2023-03-01T02:17:46;11.90;;;5.50;;
72590;SDS011;60625;51.212;5.952;2023-03-01T02:22:47;10.70;;;5.60;;
72590;SDS011;60625;51.212;5.952;2023-03-01T02:33:14;14.90;;;5.90;;
72590;SDS011;60625;51.212;5.952;2023-03-01T02:38:14;11.50;;;6.10;;
72590;SDS011;60625;51.212;5.952;2023-03-01T02:43:17;11.90;;;5.90;;
72590;SDS011;60625;51.212;5.952;2023-03-01T02:48:20;13.30;;;6.80;;
72590;SDS011;60625;51.212;5.952;2023-03-01T02:59:13;10.40;;;6.10;;
72590;SDS011;60625;51.212;5.952;2023-03-01T03:04:17;11.30;;;5.80;;
72590;SDS011;60625;51.212;5.952;2023-03-01T03:09:20;11.00;;;6.20;;
72590;SDS011;60625;51.212;5.952;2023-03-01T03:14:21;13.20;;;5.80;;
72590;SDS011;60625;51.212;5.952;2023-03-01T03:19:22;12.20;;;6.10;;
72590;SDS011;60625;51.212;5.952;2023-03-01T03:24:22;11.00;;;6.00;;
72590;SDS011;60625;51.212;5.952;2023-03-01T03:29:23;14.50;;;6.20;;
72590;SDS011;60625;51.212;5.952;2023-03-01T03:34:23;11.80;;;5.60;;
72590;SDS011;60625;51.212;5.952;2023-03-01T03:39:28;10.50;;;5.60;;
72590;SDS011;60625;51.212;5.952;2023-03-01T03:44:29;14.00;;;6.50;;
72590;SDS011;60625;51.212;5.952;2023-03-01T03:49:29;14.10;;;7.20;;
72590;SDS011;60625;51.212;5.952;2023-03-01T03:54:29;13.20;;;6.00;;
72590;SDS011;60625;51.212;5.952;2023-03-01T03:59:30;11.00;;;6.10;;
72590;SDS011;60625;51.212;5.952;2023-03-01T04:04:31;15.60;;;7.10;;
72590;SDS011;60625;51.212;5.952;2023-03-01T04:09:31;13.70;;;6.60;;
72590;SDS011;60625;51.212;5.952;2023-03-01T04:14:32;13.40;;;6.50;;
72590;SDS011;60625;51.212;5.952;2023-03-01T04:19:33;11.70;;;6.80;;
72590;SDS011;60625;51.212;5.952;2023-03-01T04:24:36;12.80;;;6.40;;
72590;SDS011;60625;51.212;5.952;2023-03-01T04:29:37;15.40;;;7.00;;
72590;SDS011;60625;51.212;5.952;2023-03-01T04:34:38;9.90;;;5.60;;
72590;SDS011;60625;51.212;5.952;2023-03-01T04:39:38;14.50;;;7.60;;
72590;SDS011;60625;51.212;5.952;2023-03-01T04:44:45;14.50;;;7.00;;
72590;SDS011;60625;51.212;5.952;2023-03-01T04:49:46;17.10;;;7.00;;
72590;SDS011;60625;51.212;5.952;2023-03-01T04:54:46;12.70;;;6.50;;
72590;SDS011;60625;51.212;5.952;2023-03-01T04:59:47;15.50;;;6.90;;
72590;SDS011;60625;51.212;5.952;2023-03-01T05:04:47;9.80;;;6.00;;
72590;SDS011;60625;51.212;5.952;2023-03-01T05:09:48;16.50;;;7.40;;
72590;SDS011;60625;51.212;5.952;2023-03-01T05:14:48;14.20;;;7.30;;
72590;SDS011;60625;51.212;5.952;2023-03-01T05:19:51;16.70;;;7.20;;
72590;SDS011;60625;51.212;5.952;2023-03-01T05:24:51;14.30;;;6.80;;
72590;SDS011;60625;51.212;5.952;2023-03-01T05:29:54;12.30;;;6.80;;
72590;SDS011;60625;51.212;5.952;2023-03-01T05:34:55;12.50;;;7.20;;
72590;SDS011;60625;51.212;5.952;2023-03-01T05:39:56;12.80;;;7.10;;
72590;SDS011;60625;51.212;5.952;2023-03-01T05:44:56;13.60;;;7.30;;
72590;SDS011;60625;51.212;5.952;2023-03-01T05:49:56;12.10;;;6.50;;
72590;SDS011;60625;51.212;5.952;2023-03-01T05:54:57;13.90;;;6.90;;
72590;SDS011;60625;51.212;5.952;2023-03-01T05:59:58;12.90;;;6.50;;
72590;SDS011;60625;51.212;5.952;2023-03-01T06:04:58;13.70;;;5.70;;
72590;SDS011;60625;51.212;5.952;2023-03-01T06:09:58;14.10;;;7.20;;
72590;SDS011;60625;51.212;5.952;2023-03-01T06:14:59;13.10;;;6.60;;
72590;SDS011;60625;51.212;5.952;2023-03-01T06:20:00;17.90;;;7.30;;
72590;SDS011;60625;51.212;5.952;2023-03-01T06:25:01;14.20;;;7.30;;
72590;SDS011;60625;51.212;5.952;2023-03-01T06:30:03;14.80;;;7.40;;
72590;SDS011;60625;51.212;5.952;2023-03-01T06:35:04;17.00;;;7.70;;
72590;SDS011;60625;51.212;5.952;2023-03-01T06:40:06;12.90;;;7.40;;
72590;SDS011;60625;51.212;5.952;2023-03-01T06:45:09;12.00;;;6.80;;
72590;SDS011;60625;51.212;5.952;2023-03-01T06:50:11;12.00;;;6.60;;
72590;SDS011;60625;51.212;5.952;2023-03-01T06:55:13;13.30;;;7.20;;
72590;SDS011;60625;51.212;5.952;2023-03-01T07:00:14;17.00;;;7.50;;
72590;SDS011;60625;51.212;5.952;2023-03-01T07:05:15;17.10;;;7.70;;
72590;SDS011;60625;51.212;5.952;2023-03-01T07:10:16;14.30;;;7.40;;
72590;SDS011;60625;51.212;5.952;2023-03-01T07:15:17;14.60;;;7.90;;
72590;SDS011;60625;51.212;5.952;2023-03-01T07:20:18;18.90;;;8.10;;
72590;SDS011;60625;51.212;5.952;2023-03-01T07:25:22;15.00;;;7.80;;
72590;SDS011;60625;51.212;5.952;2023-03-01T07:30:24;14.80;;;8.30;;
72590;SDS011;60625;51.212;5.952;2023-03-01T07:35:27;16.90;;;8.50;;
72590;SDS011;60625;51.212;5.952;2023-03-01T07:40:28;14.70;;;8.00;;
72590;SDS011;60625;51.212;5.952;2023-03-01T07:45:29;17.30;;;8.40;;
72590;SDS011;60625;51.212;5.952;2023-03-01T07:50:30;16.40;;;9.20;;
72590;SDS011;60625;51.212;5.952;2023-03-01T07:55:30;20.60;;;9.50;;
72590;SDS011;60625;51.212;5.952;2023-03-01T08:00:31;17.20;;;9.00;;
72590;SDS011;60625;51.212;5.952;2023-03-01T08:05:32;20.70;;;9.20;;
72590;SDS011;60625;51.212;5.952;2023-03-01T08:10:32;24.50;;;10.40;;
72590;SDS011;60625;51.212;5.952;2023-03-01T08:15:33;14.30;;;7.50;;
72590;SDS011;60625;51.212;5.952;2023-03-01T08:20:33;21.60;;;8.60;;
72590;SDS011;60625;51.212;5.952;2023-03-01T08:25:33;19.20;;;8.90;;
72590;SDS011;60625;51.212;5.952;2023-03-01T08:30:34;17.50;;;8.60;;
72590;SDS011;60625;51.212;5.952;2023-03-01T08:35:35;14.80;;;8.80;;
72590;SDS011;60625;51.212;5.952;2023-03-01T08:40:35;18.10;;;9.60;;
72590;SDS011;60625;51.212;5.952;2023-03-01T08:45:36;17.10;;;9.00;;
72590;SDS011;60625;51.212;5.952;2023-03-01T08:50:36;18.90;;;8.90;;
72590;SDS011;60625;51.212;5.952;2023-03-01T08:55:36;17.70;;;9.00;;
72590;SDS011;60625;51.212;5.952;2023-03-01T09:00:38;16.00;;;7.70;;
72590;SDS011;60625;51.212;5.952;2023-03-01T09:05:38;18.20;;;8.60;;
72590;SDS011;60625;51.212;5.952;2023-03-01T09:10:39;17.80;;;9.00;;
72590;SDS011;60625;51.212;5.952;2023-03-01T09:15:39;17.50;;;10.10;;
72590;SDS011;60625;51.212;5.952;2023-03-01T09:20:40;15.00;;;8.50;;
72590;SDS011;60625;51.212;5.952;2023-03-01T09:25:41;18.30;;;8.60;;
72590;SDS011;60625;51.212;5.952;2023-03-01T09:30:42;15.10;;;7.90;;
72590;SDS011;60625;51.212;5.952;2023-03-01T09:35:42;17.80;;;8.40;;
72590;SDS011;60625;51.212;5.952;2023-03-01T09:40:46;18.80;;;9.00;;
72590;SDS011;60625;51.212;5.952;2023-03-01T09:45:48;17.00;;;8.70;;
72590;SDS011;60625;51.212;5.952;2023-03-01T09:50:51;16.30;;;8.00;;
72590;SDS011;60625;51.212;5.952;2023-03-01T09:55:59;18.10;;;8.20;;
72590;SDS011;60625;51.212;5.952;2023-03-01T10:06:21;15.30;;;8.40;;
72590;SDS011;60625;51.212;5.952;2023-03-01T10:11:32;17.90;;;8.40;;
72590;SDS011;60625;51.212;5.952;2023-03-01T10:16:47;16.90;;;8.50;;
72590;SDS011;60625;51.212;5.952;2023-03-01T10:21:50;13.20;;;7.70;;
72590;SDS011;60625;51.212;5.952;2023-03-01T10:26:55;18.80;;;9.80;;
72590;SDS011;60625;51.212;5.952;2023-03-01T10:31:57;13.70;;;7.20;;
72590;SDS011;60625;51.212;5.952;2023-03-01T10:37:04;20.00;;;8.60;;
72590;SDS011;60625;51.212;5.952;2023-03-01T10:42:26;16.50;;;8.50;;
72590;SDS011;60625;51.212;5.952;2023-03-01T10:47:36;15.00;;;8.10;;
72590;SDS011;60625;51.212;5.952;2023-03-01T10:52:37;18.90;;;8.80;;
72590;SDS011;60625;51.212;5.952;2023-03-01T10:57:41;17.20;;;9.00;;
72590;SDS011;60625;51.212;5.952;2023-03-01T11:02:42;13.60;;;7.90;;
72590;SDS011;60625;51.212;5.952;2023-03-01T11:13:16;16.40;;;8.20;;
72590;SDS011;60625;51.212;5.952;2023-03-01T11:18:22;16.80;;;8.20;;
72590;SDS011;60625;51.212;5.952;2023-03-01T11:23:23;15.30;;;8.20;;
72590;SDS011;60625;51.212;5.952;2023-03-01T11:28:25;17.10;;;7.60;;
72590;SDS011;60625;51.212;5.952;2023-03-01T11:38:36;13.20;;;7.30;;
72590;SDS011;60625;51.212;5.952;2023-03-01T11:44:00;14.90;;;7.90;;
72590;SDS011;60625;51.212;5.952;2023-03-01T11:54:40;13.10;;;7.80;;
72590;SDS011;60625;51.212;5.952;2023-03-01T11:59:50;13.90;;;8.00;;
72590;SDS011;60625;51.212;5.952;2023-03-01T12:10:26;15.30;;;8.70;;
72590;SDS011;60625;51.212;5.952;2023-03-01T12:26:36;16.40;;;8.20;;
72590;SDS011;60625;51.212;5.952;2023-03-01T12:32:12;15.90;;;9.20;;
72590;SDS011;60625;51.212;5.952;2023-03-01T12:43:08;13.20;;;8.00;;
72590;SDS011;60625;51.212;5.952;2023-03-01T12:53:44;14.20;;;7.70;;
72590;SDS011;60625;51.212;5.952;2023-03-01T13:04:54;11.60;;;6.90;;
72590;SDS011;60625;51.212;5.952;2023-03-01T13:15:36;14.70;;;6.80;;
72590;SDS011;60625;51.212;5.952;2023-03-01T13:26:04;15.40;;;6.70;;
72590;SDS011;60625;51.212;5.952;2023-03-01T13:46:43;12.70;;;6.10;;
72590;SDS011;60625;51.212;5.952;2023-03-01T13:51:49;12.10;;;5.90;;
72590;SDS011;60625;51.212;5.952;2023-03-01T13:56:50;12.50;;;6.30;;
72590;SDS011;60625;51.212;5.952;2023-03-01T14:01:53;12.10;;;6.00;;
72590;SDS011;60625;51.212;5.952;2023-03-01T14:07:18;13.50;;;5.40;;
72590;SDS011;60625;51.212;5.952;2023-03-01T14:18:14;10.00;;;5.00;;
72590;SDS011;60625;51.212;5.952;2023-03-01T14:23:26;11.40;;;5.30;;
72590;SDS011;60625;51.212;5.952;2023-03-01T14:28:29;9.50;;;4.20;;
72590;SDS011;60625;51.212;5.952;2023-03-01T14:33:35;8.60;;;4.40;;
72590;SDS011;60625;51.212;5.952;2023-03-01T14:38:39;11.90;;;5.40;;
72590;SDS011;60625;51.212;5.952;2023-03-01T14:43:44;9.70;;;4.60;;
72590;SDS011;60625;51.212;5.952;2023-03-01T14:48:51;9.50;;;5.00;;
72590;SDS011;60625;51.212;5.952;2023-03-01T14:53:55;10.80;;;5.20;;
72590;SDS011;60625;51.212;5.952;2023-03-01T14:58:58;8.60;;;5.00;;
72590;SDS011;60625;51.212;5.952;2023-03-01T15:03:59;12.40;;;4.80;;
72590;SDS011;60625;51.212;5.952;2023-03-01T15:09:01;11.20;;;5.40;;
72590;SDS011;60625;51.212;5.952;2023-03-01T15:14:38;11.40;;;5.00;;
72590;SDS011;60625;51.212;5.952;2023-03-01T15:19:39;13.40;;;5.70;;
72590;SDS011;60625;51.212;5.952;2023-03-01T15:24:40;9.40;;;5.30;;
72590;SDS011;60625;51.212;5.952;2023-03-01T15:29:52;12.40;;;5.40;;
72590;SDS011;60625;51.212;5.952;2023-03-01T15:34:55;12.00;;;5.40;;
72590;SDS011;60625;51.212;5.952;2023-03-01T15:39:57;12.90;;;6.10;;
72590;SDS011;60625;51.212;5.952;2023-03-01T15:45:31;9.80;;;5.10;;
72590;SDS011;60625;51.212;5.952;2023-03-01T15:50:38;12.70;;;6.10;;
72590;SDS011;60625;51.212;5.952;2023-03-01T15:55:40;11.70;;;5.40;;
72590;SDS011;60625;51.212;5.952;2023-03-01T16:00:42;14.20;;;6.00;;
72590;SDS011;60625;51.212;5.952;2023-03-01T16:05:43;13.50;;;6.00;;
72590;SDS011;60625;51.212;5.952;2023-03-01T16:10:44;14.20;;;5.40;;
72590;SDS011;60625;51.212;5.952;2023-03-01T16:15:46;10.50;;;4.90;;
72590;SDS011;60625;51.212;5.952;2023-03-01T16:20:46;11.70;;;5.60;;
72590;SDS011;60625;51.212;5.952;2023-03-01T16:25:48;11.30;;;5.20;;
72590;SDS011;60625;51.212;5.952;2023-03-01T16:30:48;11.90;;;5.50;;
72590;SDS011;60625;51.212;5.952;2023-03-01T16:35:49;12.00;;;5.50;;
72590;SDS011;60625;51.212;5.952;2023-03-01T16:40:51;9.70;;;5.30;;
72590;SDS011;60625;51.212;5.952;2023-03-01T16:45:52;12.50;;;6.00;;
72590;SDS011;60625;51.212;5.952;2023-03-01T16:51:00;10.70;;;5.10;;
72590;SDS011;60625;51.212;5.952;2023-03-01T16:56:04;11.50;;;5.70;;
72590;SDS011;60625;51.212;5.952;2023-03-01T17:01:14;10.70;;;5.40;;
72590;SDS011;60625;51.212;5.952;2023-03-01T17:06:18;11.80;;;5.40;;
72590;SDS011;60625;51.212;5.952;2023-03-01T17:11:25;12.40;;;6.10;;
72590;SDS011;60625;51.212;5.952;2023-03-01T17:16:25;13.30;;;5.90;;
72590;SDS011;60625;51.212;5.952;2023-03-01T17:21:26;12.40;;;5.30;;
72590;SDS011;60625;51.212;5.952;2023-03-01T17:26:27;11.80;;;5.20;;
72590;SDS011;60625;51.212;5.952;2023-03-01T17:31:32;12.00;;;5.90;;
72590;SDS011;60625;51.212;5.952;2023-03-01T17:36:33;15.50;;;6.20;;
72590;SDS011;60625;51.212;5.952;2023-03-01T17:41:43;14.60;;;6.10;;
72590;SDS011;60625;51.212;5.952;2023-03-01T17:46:43;15.60;;;6.90;;
72590;SDS011;60625;51.212;5.952;2023-03-01T17:51:44;11.80;;;6.20;;
72590;SDS011;60625;51.212;5.952;2023-03-01T17:56:44;13.60;;;6.40;;
72590;SDS011;60625;51.212;5.952;2023-03-01T18:01:45;17.00;;;6.70;;
72590;SDS011;60625;51.212;5.952;2023-03-01T18:06:46;12.50;;;6.20;;
72590;SDS011;60625;51.212;5.952;2023-03-01T18:11:47;16.80;;;6.80;;
72590;SDS011;60625;51.212;5.952;2023-03-01T18:16:47;15.60;;;6.50;;
72590;SDS011;60625;51.212;5.952;2023-03-01T18:21:47;15.30;;;6.60;;
72590;SDS011;60625;51.212;5.952;2023-03-01T18:26:48;14.30;;;6.40;;
72590;SDS011;60625;51.212;5.952;2023-03-01T18:31:48;14.60;;;6.30;;
72590;SDS011;60625;51.212;5.952;2023-03-01T18:36:49;15.40;;;6.90;;
72590;SDS011;60625;51.212;5.952;2023-03-01T18:41:55;12.80;;;6.10;;
72590;SDS011;60625;51.212;5.952;2023-03-01T18:46:56;13.00;;;6.80;;
72590;SDS011;60625;51.212;5.952;2023-03-01T18:51:57;18.80;;;7.50;;
72590;SDS011;60625;51.212;5.952;2023-03-01T18:56:57;13.10;;;7.00;;
72590;SDS011;60625;51.212;5.952;2023-03-01T19:01:58;12.50;;;6.20;;
72590;SDS011;60625;51.212;5.952;2023-03-01T19:06:58;14.00;;;7.10;;
72590;SDS011;60625;51.212;5.952;2023-03-01T19:12:01;18.20;;;7.50;;
72590;SDS011;60625;51.212;5.952;2023-03-01T19:17:03;16.20;;;7.10;;
72590;SDS011;60625;51.212;5.952;2023-03-01T19:22:04;15.00;;;6.90;;
72590;SDS011;60625;51.212;5.952;2023-03-01T19:27:06;15.90;;;6.80;;
72590;SDS011;60625;51.212;5.952;2023-03-01T19:32:07;15.10;;;7.00;;
72590;SDS011;60625;51.212;5.952;2023-03-01T19:37:08;12.10;;;5.50;;
72590;SDS011;60625;51.212;5.952;2023-03-01T19:42:09;12.30;;;5.70;;
72590;SDS011;60625;51.212;5.952;2023-03-01T19:47:10;14.40;;;6.10;;
72590;SDS011;60625;51.212;5.952;2023-03-01T19:52:11;13.40;;;7.30;;
72590;SDS011;60625;51.212;5.952;2023-03-01T19:57:12;15.60;;;6.60;;
72590;SDS011;60625;51.212;5.952;2023-03-01T20:02:12;13.90;;;7.10;;
72590;SDS011;60625;51.212;5.952;2023-03-01T20:07:12;16.40;;;7.10;;
72590;SDS011;60625;51.212;5.952;2023-03-01T20:12:13;15.10;;;6.90;;
72590;SDS011;60625;51.212;5.952;2023-03-01T20:17:14;14.00;;;6.10;;
72590;SDS011;60625;51.212;5.952;2023-03-01T20:22:14;12.80;;;7.10;;
72590;SDS011;60625;51.212;5.952;2023-03-01T20:27:15;13.40;;;5.80;;
72590;SDS011;60625;51.212;5.952;2023-03-01T20:32:15;13.50;;;6.80;;
72590;SDS011;60625;51.212;5.952;2023-03-01T20:37:16;13.10;;;6.20;;
72590;SDS011;60625;51.212;5.952;2023-03-01T20:42:16;17.70;;;8.50;;
72590;SDS011;60625;51.212;5.952;2023-03-01T20:47:17;19.20;;;8.40;;
72590;SDS011;60625;51.212;5.952;2023-03-01T20:52:20;16.90;;;8.10;;
72590;SDS011;60625;51.212;5.952;2023-03-01T20:57:20;14.60;;;6.90;;
72590;SDS011;60625;51.212;5.952;2023-03-01T21:02:21;15.90;;;6.90;;
72590;SDS011;60625;51.212;5.952;2023-03-01T21:07:21;15.00;;;6.40;;
72590;SDS011;60625;51.212;5.952;2023-03-01T21:12:21;14.20;;;6.50;;
72590;SDS011;60625;51.212;5.952;2023-03-01T21:17:22;15.60;;;6.70;;
72590;SDS011;60625;51.212;5.952;2023-03-01T21:22:23;14.00;;;6.60;;
72590;SDS011;60625;51.212;5.952;2023-03-01T21:27:23;13.00;;;5.50;;
72590;SDS011;60625;51.212;5.952;2023-03-01T21:32:24;13.20;;;6.10;;
72590;SDS011;60625;51.212;5.952;2023-03-01T21:37:24;12.70;;;6.60;;
72590;SDS011;60625;51.212;5.952;2023-03-01T21:42:27;16.10;;;7.20;;
72590;SDS011;60625;51.212;5.952;2023-03-01T21:47:31;16.00;;;6.10;;
72590;SDS011;60625;51.212;5.952;2023-03-01T21:52:33;13.40;;;6.30;;
72590;SDS011;60625;51.212;5.952;2023-03-01T21:57:34;12.00;;;5.60;;
72590;SDS011;60625;51.212;5.952;2023-03-01T22:02:42;15.10;;;6.30;;
72590;SDS011;60625;51.212;5.952;2023-03-01T22:07:43;15.80;;;6.10;;
72590;SDS011;60625;51.212;5.952;2023-03-01T22:12:43;15.90;;;6.50;;
72590;SDS011;60625;51.212;5.952;2023-03-01T22:17:44;15.10;;;5.80;;
72590;SDS011;60625;51.212;5.952;2023-03-01T22:22:44;15.10;;;6.90;;
72590;SDS011;60625;51.212;5.952;2023-03-01T22:27:45;13.00;;;6.30;;
72590;SDS011;60625;51.212;5.952;2023-03-01T22:32:46;15.10;;;6.20;;
72590;SDS011;60625;51.212;5.952;2023-03-01T22:37:46;14.60;;;6.60;;
72590;SDS011;60625;51.212;5.952;2023-03-01T22:42:47;14.50;;;6.60;;
72590;SDS011;60625;51.212;5.952;2023-03-01T22:47:47;16.80;;;6.20;;
72590;SDS011;60625;51.212;5.952;2023-03-01T22:52:48;13.70;;;6.20;;
72590;SDS011;60625;51.212;5.952;2023-03-01T22:57:49;14.10;;;7.30;;
72590;SDS011;60625;51.212;5.952;2023-03-01T23:02:50;17.30;;;6.40;;
72590;SDS011;60625;51.212;5.952;2023-03-01T23:07:51;14.10;;;5.30;;
72590;SDS011;60625;51.212;5.952;2023-03-01T23:12:55;15.50;;;5.60;;
72590;SDS011;60625;51.212;5.952;2023-03-01T23:17:56;12.30;;;5.50;;
72590;SDS011;60625;51.212;5.952;2023-03-01T23:22:57;12.80;;;5.40;;
72590;SDS011;60625;51.212;5.952;2023-03-01T23:28:00;12.90;;;5.10;;
72590;SDS011;60625;51.212;5.952;2023-03-01T23:33:01;12.20;;;5.20;;
72590;SDS011;60625;51.212;5.952;2023-03-01T23:38:01;11.60;;;5.60;;
72590;SDS011;60625;51.212;5.952;2023-03-01T23:43:02;13.60;;;5.80;;
72590;SDS011;60625;51.212;5.952;2023-03-01T23:48:03;13.60;;;5.30;;
72590;SDS011;60625;51.212;5.952;2023-03-01T23:53:04;12.90;;;5.70;;
72590;SDS011;60625;51.212;5.952;2023-03-01T23:58:04;11.70;;;5.30;;
